createdAt,value
2022-09-02T00:01:02.315Z,99.90
2022-09-02T00:03:32.039Z,99.90
2022-09-02T00:05:58.867Z,99.90
2022-09-02T00:08:25.788Z,99.90
2022-09-02T00:10:52.582Z,99.90
2022-09-02T00:13:20.612Z,99.90
2022-09-02T00:15:48.939Z,99.90
2022-09-02T00:18:18.257Z,99.90
2022-09-02T00:20:48.183Z,99.90
2022-09-02T00:23:16.662Z,99.90
2022-09-02T00:25:44.842Z,99.90
2022-09-02T00:28:13.587Z,99.90
2022-09-02T00:30:41.280Z,99.90
2022-09-02T00:33:09.021Z,99.90
2022-09-02T00:35:36.884Z,99.90
2022-09-02T00:38:05.310Z,99.90
2022-09-02T00:40:33.917Z,99.90
2022-09-02T00:43:01.002Z,99.90
2022-09-02T00:45:27.752Z,99.90
2022-09-02T00:47:54.497Z,99.90
2022-09-02T00:50:26.813Z,99.90
2022-09-02T00:52:58.774Z,99.90
2022-09-02T00:55:32.875Z,99.90
2022-09-02T00:58:09.327Z,99.90
2022-09-02T01:00:42.378Z,99.90
2022-09-02T01:03:12.003Z,99.90
2022-09-02T01:05:44.839Z,99.90
2022-09-02T01:08:39.252Z,99.90
2022-09-02T01:11:06.864Z,99.90
2022-09-02T01:13:38.914Z,99.90
2022-09-02T01:16:16.042Z,99.90
2022-09-02T01:18:47.400Z,99.90
2022-09-02T01:21:14.704Z,99.90
2022-09-02T01:23:41.758Z,99.90
2022-09-02T01:26:09.454Z,99.90
2022-09-02T01:28:36.308Z,99.90
2022-09-02T01:31:04.406Z,99.90
2022-09-02T01:33:31.693Z,99.90
2022-09-02T01:35:59.614Z,99.90
2022-09-02T01:38:26.829Z,99.90
2022-09-02T01:40:53.856Z,99.90
2022-09-02T01:43:25.313Z,99.90
2022-09-02T01:45:54.681Z,99.90
2022-09-02T01:48:23.779Z,99.90
2022-09-02T01:50:56.851Z,99.90
2022-09-02T01:53:23.817Z,99.90
2022-09-02T01:55:52.404Z,99.90
2022-09-02T01:58:20.031Z,99.90
2022-09-02T02:00:47.573Z,99.90
2022-09-02T02:03:15.297Z,99.90
2022-09-02T02:05:42.227Z,99.90
2022-09-02T02:08:09.452Z,99.90
2022-09-02T02:10:36.411Z,99.90
2022-09-02T02:13:04.927Z,99.90
2022-09-02T02:15:36.599Z,99.90
2022-09-02T02:18:04.277Z,99.90
2022-09-02T02:20:32.194Z,99.90
2022-09-02T02:22:59.100Z,99.90
2022-09-02T02:25:25.977Z,99.90
2022-09-02T02:27:54.484Z,99.90
2022-09-02T02:30:23.729Z,99.90
2022-09-02T02:32:51.143Z,99.90
2022-09-02T02:35:20.091Z,99.90
2022-09-02T02:37:50.150Z,99.90
2022-09-02T02:40:20.242Z,99.90
2022-09-02T02:42:49.075Z,99.90
2022-09-02T02:45:16.064Z,99.90
2022-09-02T02:47:46.092Z,99.90
2022-09-02T02:50:16.649Z,99.90
2022-09-02T02:52:43.886Z,99.90
2022-09-02T02:55:12.532Z,99.90
2022-09-02T02:57:40.810Z,99.90
2022-09-02T03:00:14.751Z,99.90
2022-09-02T03:02:42.307Z,99.90
2022-09-02T03:05:11.457Z,99.90
2022-09-02T03:07:38.254Z,99.90
2022-09-02T03:10:08.260Z,99.90
2022-09-02T03:12:39.055Z,99.90
2022-09-02T03:15:08.269Z,99.90
2022-09-02T03:17:35.605Z,99.90
2022-09-02T03:20:03.523Z,99.90
2022-09-02T03:22:35.845Z,99.90
2022-09-02T03:25:08.002Z,99.90
2022-09-02T03:27:36.828Z,99.90
2022-09-02T03:30:06.031Z,99.90
2022-09-02T03:32:33.092Z,99.90
2022-09-02T03:35:01.879Z,99.90
2022-09-02T03:37:29.604Z,99.90
2022-09-02T03:39:56.643Z,99.90
2022-09-02T03:42:23.426Z,99.90
2022-09-02T03:44:51.552Z,99.90
2022-09-02T03:47:20.817Z,99.90
2022-09-02T03:49:51.650Z,99.90
2022-09-02T03:52:18.513Z,99.90
2022-09-02T03:54:45.819Z,99.90
2022-09-02T03:57:12.776Z,99.90
2022-09-02T03:59:40.001Z,99.90
2022-09-02T04:02:07.498Z,99.90
2022-09-02T04:04:35.098Z,99.90
2022-09-02T04:07:01.874Z,99.90
2022-09-02T04:09:28.643Z,99.90
2022-09-02T04:11:55.523Z,99.90
2022-09-02T04:14:22.447Z,99.90
2022-09-02T04:16:49.682Z,99.90
2022-09-02T04:19:17.023Z,99.90
2022-09-02T04:21:44.066Z,99.90
2022-09-02T04:24:12.853Z,99.90
2022-09-02T04:26:44.854Z,99.90
2022-09-02T04:29:13.784Z,99.90
2022-09-02T04:31:42.423Z,99.90
2022-09-02T04:34:10.641Z,99.90
2022-09-02T04:36:37.742Z,99.90
2022-09-02T04:39:09.318Z,99.90
2022-09-02T04:41:37.578Z,99.90
2022-09-02T04:44:08.139Z,99.90
2022-09-02T04:46:39.170Z,99.90
2022-09-02T04:49:09.809Z,99.90
2022-09-02T04:51:39.375Z,99.90
2022-09-02T04:54:08.676Z,99.90
2022-09-02T04:56:38.458Z,99.90
2022-09-02T04:59:07.205Z,99.90
2022-09-02T05:01:36.660Z,99.90
2022-09-02T05:04:14.445Z,99.90
2022-09-02T05:06:47.003Z,99.90
2022-09-02T05:09:18.740Z,99.90
2022-09-02T05:11:51.974Z,99.90
2022-09-02T05:14:23.587Z,99.90
2022-09-02T05:16:53.914Z,99.90
2022-09-02T05:19:24.212Z,99.90
2022-09-02T05:21:55.157Z,99.90
2022-09-02T05:24:35.052Z,99.90
2022-09-02T05:27:06.923Z,99.90
2022-09-02T05:29:35.846Z,99.90
2022-09-02T05:32:04.165Z,99.90
2022-09-02T05:34:33.342Z,99.90
2022-09-02T05:37:03.346Z,99.90
2022-09-02T05:39:32.084Z,99.90
2022-09-02T05:42:00.508Z,99.90
2022-09-02T05:44:29.139Z,99.90
2022-09-02T05:46:57.330Z,99.90
2022-09-02T05:49:24.273Z,99.90
2022-09-02T05:51:59.365Z,99.90
2022-09-02T05:54:33.813Z,99.90
2022-09-02T05:57:09.166Z,99.90
2022-09-02T05:59:42.085Z,99.90
2022-09-02T06:02:13.039Z,99.90
2022-09-02T06:04:41.400Z,99.90
2022-09-02T06:07:09.885Z,99.90
2022-09-02T06:09:41.123Z,99.90
2022-09-02T06:12:08.743Z,99.90
2022-09-02T06:14:38.014Z,99.90
2022-09-02T06:17:06.386Z,99.90
2022-09-02T06:19:42.856Z,99.90
2022-09-02T06:22:11.537Z,99.90
2022-09-02T06:24:39.135Z,99.90
2022-09-02T06:27:10.649Z,99.90
2022-09-02T06:29:40.255Z,99.90
2022-09-02T06:32:09.517Z,99.90
2022-09-02T06:34:37.073Z,99.90
2022-09-02T06:37:04.034Z,99.90
2022-09-02T06:39:32.375Z,99.90
2022-09-02T06:41:59.629Z,99.90
2022-09-02T06:44:29.781Z,99.90
2022-09-02T06:47:00.735Z,99.90
2022-09-02T06:49:28.720Z,99.90
2022-09-02T06:51:58.211Z,99.90
2022-09-02T06:54:30.304Z,99.90
2022-09-02T06:57:06.734Z,99.90
2022-09-02T06:59:36.440Z,99.90
2022-09-02T07:02:04.030Z,99.90
2022-09-02T07:04:53.125Z,99.90
2022-09-02T07:07:22.893Z,99.90
2022-09-02T07:09:59.710Z,99.90
2022-09-02T07:12:27.323Z,99.90
2022-09-02T07:15:02.155Z,99.90
2022-09-02T07:17:34.841Z,99.90
2022-09-02T07:20:05.896Z,99.90
2022-09-02T07:22:39.412Z,99.90
2022-09-02T07:25:09.636Z,99.90
2022-09-02T07:27:37.737Z,99.90
2022-09-02T07:30:06.777Z,99.90
2022-09-02T07:32:38.627Z,99.90
2022-09-02T07:35:08.046Z,99.90
2022-09-02T07:37:36.310Z,99.90
2022-09-02T07:40:08.244Z,99.90
2022-09-02T07:42:35.114Z,99.90
2022-09-02T07:45:02.493Z,99.90
2022-09-02T07:47:29.561Z,99.90
2022-09-02T07:52:46.199Z,99.90
2022-09-02T07:55:15.358Z,99.90
2022-09-02T07:57:44.354Z,99.90
2022-09-02T08:00:13.641Z,99.90
2022-09-02T08:02:47.528Z,99.90
2022-09-02T08:05:21.238Z,99.90
2022-09-02T08:07:48.081Z,99.90
2022-09-02T08:10:16.735Z,99.90
2022-09-02T08:12:44.221Z,99.90
2022-09-02T08:15:12.113Z,99.90
2022-09-02T08:17:43.139Z,99.90
2022-09-02T08:20:14.678Z,99.90
2022-09-02T08:22:41.716Z,99.90
2022-09-02T08:25:09.238Z,99.90
2022-09-02T08:27:36.638Z,99.90
2022-09-02T08:30:05.333Z,99.90
2022-09-02T08:32:32.824Z,99.90
2022-09-02T08:35:02.772Z,99.90
2022-09-02T08:37:33.599Z,99.90
2022-09-02T08:40:03.624Z,99.90
2022-09-02T08:42:44.043Z,99.90
2022-09-02T08:45:32.419Z,99.90
2022-09-02T08:48:08.193Z,99.90
2022-09-02T08:50:36.567Z,99.90
2022-09-02T08:53:22.535Z,99.90
2022-09-02T08:55:55.083Z,99.90
2022-09-02T08:58:28.802Z,99.90
2022-09-02T09:01:10.891Z,99.90
2022-09-02T09:04:16.337Z,99.90
2022-09-02T09:06:46.071Z,99.90
2022-09-02T09:09:43.898Z,99.90
2022-09-02T09:12:22.297Z,99.90
2022-09-02T09:15:20.929Z,99.90
2022-09-02T09:17:59.975Z,99.90
2022-09-02T09:20:29.806Z,99.90
2022-09-02T09:22:59.786Z,99.90
2022-09-02T09:25:32.239Z,99.90
2022-09-02T09:28:00.726Z,99.90
2022-09-02T09:30:29.821Z,99.90
2022-09-02T09:33:00.506Z,99.90
2022-09-02T09:35:28.983Z,99.90
2022-09-02T09:37:56.549Z,99.90
2022-09-02T09:40:30.828Z,99.90
2022-09-02T09:43:13.169Z,99.90
2022-09-02T09:45:51.730Z,99.90
2022-09-02T09:48:23.535Z,99.90
2022-09-02T09:51:12.803Z,99.90
2022-09-02T09:53:40.080Z,99.90
2022-09-02T09:56:15.939Z,99.90
2022-09-02T09:58:45.842Z,99.90
2022-09-02T10:01:24.470Z,99.90
2022-09-02T10:04:32.198Z,99.90
2022-09-02T10:06:55.703Z,99.90
2022-09-02T10:09:31.018Z,99.90
2022-09-02T10:12:02.613Z,99.90
2022-09-02T10:14:46.313Z,99.90
2022-09-02T10:17:16.211Z,99.90
2022-09-02T10:20:08.102Z,99.90
2022-09-02T10:22:58.685Z,99.90
2022-09-02T10:25:56.658Z,99.90
2022-09-02T10:29:03.925Z,99.90
2022-09-02T10:32:14.208Z,99.90
2022-09-02T10:34:59.809Z,99.90
2022-09-02T10:37:46.991Z,99.90
2022-09-02T10:40:37.415Z,99.90
2022-09-02T10:43:24.456Z,99.90
2022-09-02T10:45:56.136Z,99.90
2022-09-02T10:49:06.785Z,99.90
2022-09-02T10:51:37.338Z,99.90
2022-09-02T10:54:40.037Z,99.90
2022-09-02T10:57:44.957Z,99.90
2022-09-02T11:00:20.325Z,99.80
2022-09-02T11:02:55.481Z,99.90
2022-09-02T11:05:45.372Z,99.90
2022-09-02T11:08:19.661Z,99.90
2022-09-02T11:11:01.067Z,99.20
2022-09-02T11:13:37.605Z,98.90
2022-09-02T11:16:20.879Z,98.60
2022-09-02T11:19:22.339Z,99.20
2022-09-02T11:22:23.098Z,99.00
2022-09-02T11:25:06.999Z,98.60
2022-09-02T11:27:45.343Z,98.00
2022-09-02T11:30:21.485Z,98.20
2022-09-02T11:33:17.712Z,98.80
2022-09-02T11:35:45.176Z,97.90
2022-09-02T11:38:42.710Z,97.10
2022-09-02T11:41:35.022Z,97.00
2022-09-02T11:44:31.310Z,96.30
2022-09-02T11:47:26.223Z,96.30
2022-09-02T11:50:23.966Z,95.40
2022-09-02T11:53:20.613Z,95.80
2022-09-02T11:55:58.331Z,95.30
2022-09-02T11:58:33.351Z,95.20
2022-09-02T12:01:15.425Z,94.40
2022-09-02T12:04:27.204Z,93.50
2022-09-02T12:06:38.018Z,94.30
2022-09-02T12:09:08.126Z,93.80
2022-09-02T12:11:43.629Z,94.00
2022-09-02T12:14:25.465Z,94.90
2022-09-02T12:17:04.264Z,94.50
2022-09-02T12:19:41.942Z,94.50
2022-09-02T12:22:15.947Z,93.70
2022-09-02T12:24:54.479Z,93.90
2022-09-02T12:27:24.021Z,93.40
2022-09-02T12:29:52.371Z,93.20
2022-09-02T12:32:45.297Z,92.50
2022-09-02T12:35:31.388Z,91.90
2022-09-02T12:38:21.828Z,92.10
2022-09-02T12:40:54.885Z,91.80
2022-09-02T12:43:32.659Z,92.00
2022-09-02T12:46:28.692Z,92.00
2022-09-02T12:49:25.261Z,91.50
2022-09-02T12:52:04.021Z,90.70
2022-09-02T12:54:50.176Z,91.10
2022-09-02T12:57:18.607Z,90.70
2022-09-02T12:59:47.461Z,90.30
2022-09-02T13:02:14.141Z,89.70
2022-09-02T13:05:08.322Z,88.70
2022-09-02T13:08:06.748Z,88.00
2022-09-02T13:11:09.274Z,85.60
2022-09-02T13:14:14.923Z,86.90
2022-09-02T13:17:35.445Z,85.40
2022-09-02T13:20:39.329Z,85.80
2022-09-02T13:23:36.334Z,85.50
2022-09-02T13:26:13.144Z,86.90
2022-09-02T13:28:48.781Z,88.50
2022-09-02T13:31:23.471Z,84.90
2022-09-02T13:34:10.176Z,85.10
2022-09-02T13:36:42.593Z,83.40
2022-09-02T13:39:18.954Z,84.00
2022-09-02T13:41:47.070Z,83.70
2022-09-02T13:44:22.309Z,84.40
2022-09-02T13:47:02.365Z,85.10
2022-09-02T13:49:38.199Z,85.10
2022-09-02T13:52:11.734Z,86.90
2022-09-02T13:54:59.899Z,87.30
2022-09-02T13:57:29.514Z,84.10
2022-09-02T13:59:58.258Z,83.90
2022-09-02T14:02:35.726Z,84.90
2022-09-02T14:05:13.809Z,84.40
2022-09-02T14:07:47.217Z,83.70
2022-09-02T14:10:19.635Z,81.70
2022-09-02T14:12:47.446Z,83.50
2022-09-02T14:15:16.639Z,83.30
2022-09-02T14:17:43.796Z,83.00
2022-09-02T14:20:14.766Z,84.00
2022-09-02T14:22:42.258Z,83.50
2022-09-02T14:25:14.456Z,84.60
2022-09-02T14:27:50.196Z,81.90
2022-09-02T14:30:34.594Z,81.20
2022-09-02T14:33:24.415Z,83.40
2022-09-02T14:36:01.542Z,81.10
2022-09-02T14:38:33.380Z,81.70
2022-09-02T14:41:03.008Z,82.00
2022-09-02T14:43:41.462Z,82.70
2022-09-02T14:46:17.793Z,83.40
2022-09-02T14:48:44.583Z,84.10
2022-09-02T14:51:11.417Z,84.00
2022-09-02T14:53:43.797Z,83.50
2022-09-02T14:56:10.539Z,83.40
2022-09-02T14:58:37.234Z,83.30
2022-09-02T15:01:04.806Z,83.20
2022-09-02T15:03:36.497Z,84.30
2022-09-02T15:06:03.403Z,84.70
2022-09-02T15:08:30.169Z,85.90
2022-09-02T15:10:59.425Z,86.60
2022-09-02T15:13:33.811Z,85.50
2022-09-02T15:16:01.784Z,86.80
2022-09-02T15:18:28.811Z,86.10
2022-09-02T15:20:55.683Z,85.90
2022-09-02T15:23:22.621Z,85.20
2022-09-02T15:25:49.669Z,87.70
2022-09-02T15:28:16.526Z,86.70
2022-09-02T15:30:43.315Z,87.10
2022-09-02T15:33:17.632Z,86.80
2022-09-02T15:35:51.766Z,88.00
2022-09-02T15:38:18.735Z,86.90
2022-09-02T15:40:45.587Z,87.50
2022-09-02T15:43:13.012Z,87.80
2022-09-02T15:45:48.851Z,88.00
2022-09-02T15:48:15.940Z,87.20
2022-09-02T15:50:42.972Z,87.50
2022-09-02T15:53:14.893Z,86.80
2022-09-02T15:55:41.883Z,86.80
2022-09-02T15:58:09.744Z,88.20
2022-09-02T16:00:36.618Z,87.50
2022-09-02T16:03:04.146Z,88.80
2022-09-02T16:05:32.337Z,89.40
2022-09-02T16:07:59.664Z,90.10
2022-09-02T16:10:26.419Z,89.80
2022-09-02T16:12:53.125Z,88.50
2022-09-02T16:15:20.830Z,89.10
2022-09-02T16:17:47.893Z,89.50
2022-09-02T16:20:19.160Z,89.80
2022-09-02T16:22:48.659Z,89.70
2022-09-02T16:25:15.596Z,90.50
2022-09-02T16:27:55.849Z,88.50
2022-09-02T16:30:23.835Z,89.30
2022-09-02T16:32:51.700Z,90.40
2022-09-02T16:35:18.702Z,90.00
2022-09-02T16:37:45.619Z,90.00
2022-09-02T16:40:13.293Z,90.10
2022-09-02T16:42:40.076Z,91.20
2022-09-02T16:45:07.379Z,90.60
2022-09-02T16:47:34.262Z,91.00
2022-09-02T16:50:01.088Z,91.70
2022-09-02T16:52:27.775Z,92.00
2022-09-02T16:54:54.481Z,92.90
2022-09-02T16:57:21.234Z,93.00
2022-09-02T16:59:47.996Z,93.90
2022-09-02T17:02:14.795Z,95.30
2022-09-02T17:04:41.685Z,94.30
2022-09-02T17:07:09.459Z,95.30
2022-09-02T17:09:36.139Z,95.90
2022-09-02T17:12:03.153Z,95.90
2022-09-02T17:14:30.321Z,95.00
2022-09-02T17:16:57.182Z,95.30
2022-09-02T17:19:27.347Z,95.50
2022-09-02T17:21:58.226Z,95.50
2022-09-02T17:24:30.610Z,97.80
2022-09-02T17:26:57.706Z,98.20
2022-09-02T17:29:48.526Z,99.90
2022-09-02T17:32:15.968Z,99.90
2022-09-02T17:34:42.723Z,99.90
2022-09-02T17:37:09.485Z,99.90
2022-09-02T17:39:36.526Z,99.90
2022-09-02T17:42:05.089Z,99.90
2022-09-02T17:44:35.909Z,99.90
2022-09-02T17:47:08.532Z,99.90
2022-09-02T17:49:37.152Z,99.90
2022-09-02T17:52:07.298Z,99.90
2022-09-02T17:54:38.967Z,99.90
2022-09-02T17:57:40.257Z,99.90
2022-09-02T18:00:17.017Z,99.90
2022-09-02T18:03:14.612Z,99.90
2022-09-02T18:06:08.929Z,99.90
2022-09-02T18:08:56.291Z,99.90
2022-09-02T18:11:23.542Z,99.90
2022-09-02T18:14:08.944Z,99.90
2022-09-02T18:16:53.935Z,99.90
2022-09-02T18:19:53.455Z,99.90
2022-09-02T18:22:48.994Z,99.90
2022-09-02T18:25:44.104Z,99.90
2022-09-02T18:28:43.251Z,99.90
2022-09-02T18:31:15.599Z,99.90
2022-09-02T18:34:11.782Z,99.90
2022-09-02T18:36:55.524Z,99.90
2022-09-02T18:39:38.813Z,99.90
2022-09-02T18:42:25.907Z,99.90
2022-09-02T18:45:21.972Z,99.90
2022-09-02T18:47:53.659Z,99.90
2022-09-02T18:50:49.069Z,99.90
2022-09-02T18:53:21.803Z,99.90
2022-09-02T18:55:50.705Z,99.90
2022-09-02T18:58:42.134Z,99.90
2022-09-02T19:01:30.411Z,99.90
2022-09-02T19:04:01.188Z,99.90
2022-09-02T19:06:36.196Z,99.90
2022-09-02T19:09:13.573Z,99.90
2022-09-02T19:11:41.230Z,99.90
2022-09-02T19:14:28.006Z,99.90
2022-09-02T19:16:57.708Z,99.90
2022-09-02T19:19:27.278Z,99.90
2022-09-02T19:22:04.816Z,99.90
2022-09-02T19:24:42.794Z,99.90
2022-09-02T19:27:17.447Z,99.90
2022-09-02T19:29:51.181Z,99.90
2022-09-02T19:32:22.240Z,99.90
2022-09-02T19:34:49.193Z,99.90
2022-09-02T19:37:17.039Z,99.90
2022-09-02T19:39:43.816Z,99.90
2022-09-02T19:42:10.919Z,99.90
2022-09-02T19:44:38.919Z,99.90
2022-09-02T19:48:02.684Z,99.90
2022-09-02T19:49:52.745Z,99.90
2022-09-02T19:52:22.829Z,99.90
2022-09-02T19:54:49.691Z,99.90
2022-09-02T19:57:16.805Z,99.90
2022-09-02T19:59:43.788Z,99.90
2022-09-02T20:02:10.633Z,99.90
2022-09-02T20:04:37.544Z,99.90
2022-09-02T20:07:04.717Z,99.90
2022-09-02T20:09:31.469Z,99.90
2022-09-02T20:11:58.697Z,99.90
2022-09-02T20:14:26.404Z,99.90
2022-09-02T20:16:57.733Z,99.90
2022-09-02T20:19:26.474Z,99.90
2022-09-02T20:21:53.641Z,99.90
2022-09-02T20:24:31.565Z,99.90
2022-09-02T20:26:59.001Z,99.90
2022-09-02T20:29:42.191Z,99.90
2022-09-02T20:32:50.290Z,99.90
2022-09-02T20:35:33.902Z,99.90
2022-09-02T20:38:29.012Z,99.90
2022-09-02T20:41:17.858Z,99.90
2022-09-02T20:44:13.192Z,99.90
2022-09-02T20:46:54.870Z,99.90
2022-09-02T20:49:38.439Z,99.90
2022-09-02T20:52:14.879Z,99.90
2022-09-02T20:55:08.077Z,99.90
2022-09-02T20:58:16.031Z,99.90
2022-09-02T21:01:06.792Z,99.90
2022-09-02T21:03:49.310Z,99.90
2022-09-02T21:06:18.838Z,99.90
2022-09-02T21:09:33.088Z,99.90
2022-09-02T21:12:08.339Z,99.90
2022-09-02T21:14:46.990Z,99.90
2022-09-02T21:17:21.564Z,99.90
2022-09-02T21:20:03.090Z,99.90
2022-09-02T21:22:31.989Z,99.90
2022-09-02T21:25:35.319Z,99.90
2022-09-02T21:28:17.180Z,99.90
2022-09-02T21:30:54.771Z,99.90
2022-09-02T21:33:25.246Z,99.90
2022-09-02T21:35:53.829Z,99.90
2022-09-02T21:38:23.650Z,99.90
2022-09-02T21:41:24.790Z,99.90
2022-09-02T21:43:57.575Z,99.90
2022-09-02T21:46:35.850Z,99.90
2022-09-02T21:49:21.174Z,99.90
2022-09-02T21:52:06.105Z,99.90
2022-09-02T21:54:41.471Z,99.90
2022-09-02T21:57:23.388Z,99.90
2022-09-02T22:00:16.929Z,99.90
2022-09-02T22:03:13.025Z,99.90
2022-09-02T22:06:12.945Z,99.90
2022-09-02T22:08:50.862Z,99.90
2022-09-02T22:11:39.660Z,99.90
2022-09-02T22:14:14.481Z,99.90
2022-09-02T22:17:00.480Z,99.90
2022-09-02T22:19:33.246Z,99.90
2022-09-02T22:22:14.140Z,99.90
2022-09-02T22:24:40.990Z,99.90
2022-09-02T22:27:23.221Z,99.90
2022-09-02T22:30:06.934Z,99.90
2022-09-02T22:32:41.005Z,99.90
2022-09-02T22:35:24.974Z,99.90
2022-09-02T22:38:01.759Z,99.90
2022-09-02T22:40:36.026Z,99.90
2022-09-02T22:43:09.217Z,99.90
2022-09-02T22:46:03.432Z,99.90
2022-09-02T22:48:58.979Z,99.90
2022-09-02T22:51:56.348Z,99.90
2022-09-02T22:54:25.090Z,99.90
2022-09-02T22:57:07.954Z,99.90
2022-09-02T22:59:49.710Z,99.90
2022-09-02T23:02:19.437Z,99.90
2022-09-02T23:05:03.747Z,99.90
2022-09-02T23:07:31.570Z,99.90
2022-09-02T23:10:00.763Z,99.90
2022-09-02T23:12:43.439Z,99.90
2022-09-02T23:15:32.409Z,99.90
2022-09-02T23:18:21.616Z,99.90
2022-09-02T23:21:19.377Z,99.90
2022-09-02T23:24:09.248Z,99.90
2022-09-02T23:26:53.615Z,99.90
2022-09-02T23:29:28.607Z,99.90
2022-09-02T23:32:04.276Z,99.90
2022-09-02T23:35:36.098Z,99.90
2022-09-02T23:38:14.138Z,99.90
2022-09-02T23:40:58.387Z,99.90
2022-09-02T23:43:25.451Z,99.90
2022-09-02T23:45:55.913Z,99.90
2022-09-02T23:48:50.348Z,99.90
2022-09-02T23:51:23.037Z,99.90
2022-09-02T23:54:21.793Z,99.90
2022-09-02T23:57:38.735Z,99.90
